Time;durP1;ratioP1;P1;durP2;ratioP2;P2;SDS_P1;SDS_P2;PMS_P1;PMS_P2;Temp;Humidity;BMP_temperature;BMP_pressure;BME280_temperature;BME280_humidity;BME280_pressure;Samples;Min_cycle;Max_cycle;Signal;HPM_P1;HPM_P2
2021/04/14 00:00:11;;;;;;;;;;;;;;;19.46;66.06;100582.09;5051706;28;1934;-47
2021/04/14 00:02:37;;;;;;;;;;;;;;;19.43;65.89;100585.06;5053247;28;1445;-47
2021/04/14 00:05:05;;;;;;;;;;;;;;;19.45;66.05;100574.19;5053655;28;2125;-47
2021/04/14 00:07:31;;;;;;;;;;;;;;;19.42;66.04;100591.41;5049983;28;1474;-47
2021/04/14 00:09:57;;;;;;;;;;;;;;;19.42;66.11;100594.09;5052223;28;1608;-47
2021/04/14 00:12:23;;;;;;;;;;;;;;;19.43;66.14;100593.09;5052174;28;1670;-47
2021/04/14 00:14:50;;;;;;;;;;;;;;;19.40;66.55;100584.50;5052978;28;1902;-47
2021/04/14 00:17:16;;;;;;;;;;;;;;;19.40;66.41;100585.34;5051697;28;1898;-47
2021/04/14 00:19:41;;;;;;;;;;;;;;;19.38;66.21;100584.66;5052347;28;1612;-47
2021/04/14 00:22:08;;;;;;;;;;;;;;;19.38;66.26;100592.69;5052347;28;1844;-48
2021/04/14 00:24:36;;;;;;;;;;;;;;;19.36;65.78;100585.75;5051644;28;1537;-46
2021/04/14 00:27:02;;;;;;;;;;;;;;;19.38;66.65;100584.66;5053628;28;1500;-46
2021/04/14 00:29:28;;;;;;;;;;;;;;;19.36;66.10;100585.75;5051660;28;1456;-46
2021/04/14 00:31:55;;;;;;;;;;;;;;;19.34;66.45;100588.59;5053074;28;1084;-47
2021/04/14 00:34:22;;;;;;;;;;;;;;;19.34;66.37;100577.00;5063621;28;1619;-47
2021/04/14 00:36:49;;;;;;;;;;;;;;;19.33;66.26;100580.69;5053030;28;1906;-47
2021/04/14 00:39:17;;;;;;;;;;;;;;;19.32;66.24;100574.50;5055368;28;1699;-47
2021/04/14 00:41:43;;;;;;;;;;;;;;;19.32;66.49;100574.50;5055621;28;1369;-48
2021/04/14 00:44:09;;;;;;;;;;;;;;;19.31;66.29;100569.28;5056667;28;1015;-47
2021/04/14 00:46:35;;;;;;;;;;;;;;;19.30;66.35;100576.47;5055643;28;1769;-47
2021/04/14 00:49:02;;;;;;;;;;;;;;;19.29;66.17;100580.13;5055676;28;1992;-47
2021/04/14 00:51:29;;;;;;;;;;;;;;;19.27;66.09;100572.22;5056234;28;1524;-47
2021/04/14 00:53:55;;;;;;;;;;;;;;;19.29;66.27;100566.72;5053579;28;1824;-48
2021/04/14 00:56:21;;;;;;;;;;;;;;;19.29;66.35;100569.41;5058859;28;1914;-47
2021/04/14 00:58:47;;;;;;;;;;;;;;;19.29;66.19;100569.41;5055455;28;1762;-47
2021/04/14 01:01:13;;;;;;;;;;;;;;;19.27;66.44;100574.06;5057306;28;1500;-47
2021/04/14 01:03:40;;;;;;;;;;;;;;;19.26;66.15;100575.06;5055297;28;1424;-47
2021/04/14 01:06:08;;;;;;;;;;;;;;;19.27;66.01;100566.88;5056040;28;1088;-47
2021/04/14 01:08:34;;;;;;;;;;;;;;;19.28;66.57;100571.25;5055054;28;1449;-47
2021/04/14 01:11:00;;;;;;;;;;;;;;;19.26;66.63;100567.03;5054956;28;1559;-47
2021/04/14 01:13:26;;;;;;;;;;;;;;;19.27;66.36;100555.31;5053885;28;1477;-47
2021/04/14 01:15:52;;;;;;;;;;;;;;;19.27;66.52;100555.31;5054382;28;1925;-46
2021/04/14 01:18:20;;;;;;;;;;;;;;;19.27;66.17;100549.94;5055951;28;1143;-47
2021/04/14 01:20:46;;;;;;;;;;;;;;;19.28;66.66;100554.31;5054820;28;1832;-47
2021/04/14 01:23:13;;;;;;;;;;;;;;;19.27;66.28;100547.25;5054463;28;1976;-47
2021/04/14 01:25:40;;;;;;;;;;;;;;;19.26;66.01;100548.25;5054345;28;1914;-47
2021/04/14 01:28:07;;;;;;;;;;;;;;;19.25;66.65;100550.06;5053734;28;1595;-47
2021/04/14 01:30:33;;;;;;;;;;;;;;;19.24;66.84;100540.34;5055089;28;1639;-47
2021/04/14 01:32:59;;;;;;;;;;;;;;;19.23;66.46;100549.38;5056025;28;1076;-46
2021/04/14 01:35:27;;;;;;;;;;;;;;;19.23;66.50;100543.16;5054587;28;1901;-47
2021/04/14 01:37:54;;;;;;;;;;;;;;;19.22;66.64;100542.34;5054334;28;2240;-46
2021/04/14 01:40:22;;;;;;;;;;;;;;;19.21;66.64;100540.63;5054562;28;1611;-48
2021/04/14 01:42:48;;;;;;;;;;;;;;;19.19;66.68;100531.88;5054607;28;1542;-46
2021/04/14 01:45:16;;;;;;;;;;;;;;;19.20;66.66;100538.94;5055010;28;1843;-46
2021/04/14 01:47:42;;;;;;;;;;;;;;;19.19;66.52;100537.25;5053719;28;1216;-46
2021/04/14 01:50:08;;;;;;;;;;;;;;;19.19;66.50;100534.56;5054095;28;1988;-47
2021/04/14 01:52:34;;;;;;;;;;;;;;;19.19;66.81;100536.41;5053341;28;1619;-47
2021/04/14 01:55:00;;;;;;;;;;;;;;;19.19;66.53;100533.72;5053638;28;1980;-47
2021/04/14 01:57:29;;;;;;;;;;;;;;;19.18;66.56;100515.94;5055223;28;1614;-46
2021/04/14 01:59:59;;;;;;;;;;;;;;;19.18;66.62;100513.25;5054617;28;1578;-46
2021/04/14 02:02:27;;;;;;;;;;;;;;;19.18;66.23;100518.63;5049385;28;1748;-46
2021/04/14 02:04:55;;;;;;;;;;;;;;;19.18;66.25;100523.97;5052443;28;1497;-46
2021/04/14 02:07:21;;;;;;;;;;;;;;;19.17;66.25;100522.28;5053198;28;1809;-46
2021/04/14 02:09:57;;;;;;;;;;;;;;;19.16;66.42;100501.81;5052685;28;1743;-46
2021/04/14 02:12:23;;;;;;;;;;;;;;;19.22;66.56;100506.66;5035996;22;3679;-54
2021/04/14 02:14:50;;;;;;;;;;;;;;;19.23;66.69;100495.75;5030008;28;1988;-55
2021/04/14 02:17:16;;;;;;;;;;;;;;;19.24;66.87;100507.34;5030238;28;1783;-56
2021/04/14 02:19:43;;;;;;;;;;;;;;;19.28;66.89;100503.38;5030821;28;1458;-57
2021/04/14 02:22:09;;;;;;;;;;;;;;;19.31;67.09;100507.59;5022893;28;1573;-54
2021/04/14 02:24:35;;;;;;;;;;;;;;;19.34;66.75;100507.31;5021999;28;2065;-62
2021/04/14 02:27:01;;;;;;;;;;;;;;;19.34;66.96;100492.09;5026705;28;1473;-54
2021/04/14 02:29:27;;;;;;;;;;;;;;;19.27;66.80;100501.69;5028809;28;1378;-58
2021/04/14 02:31:54;;;;;;;;;;;;;;;19.34;66.72;100504.63;5032410;28;1516;-54
2021/04/14 02:34:20;;;;;;;;;;;;;;;19.18;66.53;100506.06;5030443;28;1867;-54
2021/04/14 02:36:46;;;;;;;;;;;;;;;19.76;66.37;100497.06;5022241;28;1906;-57
2021/04/14 02:39:12;;;;;;;;;;;;;;;20.32;64.94;100480.97;5022170;28;1315;-57
2021/04/14 02:41:39;;;;;;;;;;;;;;;20.86;62.62;100501.50;5024675;28;1394;-55
2021/04/14 02:44:05;;;;;;;;;;;;;;;20.65;63.09;100488.41;5022282;28;1086;-57
2021/04/14 02:46:31;;;;;;;;;;;;;;;20.70;63.86;100493.31;5029293;28;1664;-57
2021/04/14 02:48:58;;;;;;;;;;;;;;;20.77;63.05;100501.59;5026524;28;1418;-57
2021/04/14 02:51:24;;;;;;;;;;;;;;;20.65;64.02;100488.41;5022900;28;1632;-57
2021/04/14 02:53:51;;;;;;;;;;;;;;;20.26;64.47;100440.28;5022934;28;1072;-57
2021/04/14 02:56:17;;;;;;;;;;;;;;;20.37;64.36;100476.84;5021226;28;1914;-55
2021/04/14 02:58:43;;;;;;;;;;;;;;;20.18;63.24;100483.16;5032052;28;1255;-54
2021/04/14 03:01:09;;;;;;;;;;;;;;;19.94;63.93;100488.25;5022292;28;1397;-56
2021/04/14 03:03:47;;;;;;;;;;;;;;;19.81;64.94;100477.84;5032488;28;1571;-56
2021/04/14 03:06:14;;;;;;;;;;;;;;;19.73;65.42;100494.66;5029947;28;969;-55
2021/04/14 03:08:41;;;;;;;;;;;;;;;19.68;65.56;100495.09;5032533;28;1533;-55
2021/04/14 03:11:07;;;;;;;;;;;;;;;19.65;65.37;100486.47;5032557;28;1493;-55
2021/04/14 03:13:33;;;;;;;;;;;;;;;19.60;65.58;100494.13;5032265;28;1418;-55
2021/04/14 03:16:00;;;;;;;;;;;;;;;19.56;65.46;100484.69;5028077;28;1982;-56
2021/04/14 03:18:26;;;;;;;;;;;;;;;19.54;65.52;100482.16;5033292;28;1456;-55
2021/04/14 03:20:54;;;;;;;;;;;;;;;19.55;65.75;100496.41;5032431;28;1552;-56
2021/04/14 03:23:21;;;;;;;;;;;;;;;19.53;65.29;100495.69;5032367;28;1887;-55
2021/04/14 03:25:47;;;;;;;;;;;;;;;19.48;65.26;100494.31;5032227;28;1460;-56
2021/04/14 03:28:13;;;;;;;;;;;;;;;19.47;65.46;100486.41;5032243;28;1453;-56
2021/04/14 03:30:40;;;;;;;;;;;;;;;19.43;65.35;100488.50;5031824;28;1524;-55
2021/04/14 03:33:06;;;;;;;;;;;;;;;19.42;65.38;100472.59;5033405;28;1072;-56
2021/04/14 03:35:32;;;;;;;;;;;;;;;19.41;65.36;100487.81;5031749;28;1902;-57
2021/04/14 03:37:58;;;;;;;;;;;;;;;19.39;65.45;100479.06;5032335;28;1620;-57
2021/04/14 03:40:25;;;;;;;;;;;;;;;19.37;65.85;100478.38;5032112;28;1573;-55
2021/04/14 03:42:53;;;;;;;;;;;;;;;19.37;65.76;100477.53;5032128;28;1640;-55
2021/04/14 03:45:22;;;;;;;;;;;;;;;19.35;65.76;100476.84;5031454;28;1977;-54
2021/04/14 03:47:48;;;;;;;;;;;;;;;19.34;66.01;100477.81;5031997;28;1517;-57
2021/04/14 03:50:16;;;;;;;;;;;;;;;19.35;65.94;100482.19;5032275;28;1720;-56
2021/04/14 03:52:43;;;;;;;;;;;;;;;19.33;65.84;100479.66;5032109;28;1573;-56
2021/04/14 03:55:10;;;;;;;;;;;;;;;19.32;65.90;100477.97;5030820;28;1960;-56
2021/04/14 03:57:37;;;;;;;;;;;;;;;19.32;65.83;100469.94;5032788;28;1181;-54
2021/04/14 04:00:03;;;;;;;;;;;;;;;19.31;66.15;100478.13;5031514;28;1576;-56
2021/04/14 04:02:29;;;;;;;;;;;;;;;19.34;66.23;100497.44;5032982;28;1412;-56
2021/04/14 04:04:55;;;;;;;;;;;;;;;19.34;66.18;100486.72;5031818;28;1703;-56
2021/04/14 04:07:21;;;;;;;;;;;;;;;19.36;66.01;100487.41;5032180;28;1580;-55
2021/04/14 04:09:47;;;;;;;;;;;;;;;19.32;65.97;100486.03;5032121;28;1640;-57
2021/04/14 04:12:14;;;;;;;;;;;;;;;19.34;66.19;100496.56;5036389;28;1080;-56
2021/04/14 04:14:47;;;;;;;;;;;;;;;19.32;65.90;100496.75;5035286;28;1759;-55
2021/04/14 04:17:13;;;;;;;;;;;;;;;19.31;66.02;100492.34;5035691;28;1975;-56
2021/04/14 04:19:39;;;;;;;;;;;;;;;19.31;65.95;100487.00;5035911;28;1839;-55
2021/04/14 04:22:05;;;;;;;;;;;;;;;19.33;65.89;100486.84;5035602;28;1889;-55
2021/04/14 04:24:31;;;;;;;;;;;;;;;19.35;65.86;100476.84;5030922;28;1363;-54
2021/04/14 04:26:57;;;;;;;;;;;;;;;19.35;65.81;100479.50;5026714;28;1536;-57
2021/04/14 04:29:23;;;;;;;;;;;;;;;19.26;65.59;100495.47;5035490;28;1561;-54
2021/04/14 04:31:50;;;;;;;;;;;;;;;19.21;65.16;100496.91;5036521;28;1398;-55
2021/04/14 04:34:16;;;;;;;;;;;;;;;19.18;65.22;100498.03;5035147;28;1692;-54
2021/04/14 04:36:43;;;;;;;;;;;;;;;19.11;65.49;100502.25;5035639;28;1910;-56
2021/04/14 04:39:09;;;;;;;;;;;;;;;19.16;65.46;100501.81;5035485;28;2001;-54
2021/04/14 04:41:35;;;;;;;;;;;;;;;19.12;66.23;100505.78;5036192;28;977;-54
2021/04/14 04:44:01;;;;;;;;;;;;;;;19.00;63.50;100505.94;5035596;28;1923;-54
2021/04/14 04:46:27;;;;;;;;;;;;;;;18.90;64.51;100509.59;5035655;28;1751;-55
2021/04/14 04:48:54;;;;;;;;;;;;;;;18.83;61.92;100503.97;5034940;28;1563;-55
2021/04/14 04:51:20;;;;;;;;;;;;;;;18.86;62.93;100509.91;5035215;28;1573;-55
2021/04/14 04:53:46;;;;;;;;;;;;;;;18.80;60.84;100504.25;5027971;28;1430;-56
2021/04/14 04:56:12;;;;;;;;;;;;;;;18.65;63.60;100507.31;5028653;28;1976;-56
2021/04/14 04:58:38;;;;;;;;;;;;;;;18.13;65.28;100516.50;5016383;28;1489;-55
2021/04/14 05:01:06;;;;;;;;;;;;;;;18.18;65.75;100522.28;5035261;28;1080;-54
2021/04/14 05:03:32;;;;;;;;;;;;;;;18.38;66.16;100509.81;5030927;28;1557;-56
2021/04/14 05:06:00;;;;;;;;;;;;;;;18.55;66.42;100501.09;5025243;28;1308;-55
2021/04/14 05:08:27;;;;;;;;;;;;;;;18.60;66.12;100498.00;5029206;28;1426;-58
2021/04/14 05:10:53;;;;;;;;;;;;;;;18.69;65.77;100513.25;5027964;28;1497;-55
2021/04/14 05:13:19;;;;;;;;;;;;;;;18.65;66.06;100496.59;5027927;28;1265;-55
2021/04/14 05:15:45;;;;;;;;;;;;;;;18.67;65.61;100499.97;5029071;28;1967;-56
2021/04/14 05:18:12;;;;;;;;;;;;;;;18.82;65.72;100497.78;5033005;28;1448;-58
2021/04/14 05:20:38;;;;;;;;;;;;;;;18.99;65.57;100503.41;5032411;28;1533;-57
2021/04/14 05:23:05;;;;;;;;;;;;;;;19.04;65.33;100493.97;5033920;28;1426;-58
2021/04/14 05:25:32;;;;;;;;;;;;;;;19.06;65.65;100502.69;5027263;28;1442;-58
2021/04/14 05:28:02;;;;;;;;;;;;;;;19.05;66.04;100502.84;5030902;28;1308;-56
2021/04/14 05:30:29;;;;;;;;;;;;;;;19.05;66.23;100503.69;5032008;28;1493;-55
2021/04/14 05:32:55;;;;;;;;;;;;;;;19.05;66.23;100498.31;5032684;28;1152;-58
2021/04/14 05:35:21;;;;;;;;;;;;;;;19.01;65.65;100496.91;5029457;28;1973;-55
2021/04/14 05:37:47;;;;;;;;;;;;;;;18.99;66.10;100504.25;5035064;28;1413;-54
2021/04/14 05:40:15;;;;;;;;;;;;;;;19.07;66.07;100507.06;5035085;28;1415;-56
2021/04/14 05:42:42;;;;;;;;;;;;;;;19.04;66.28;100507.38;5034560;28;1577;-57
2021/04/14 05:45:09;;;;;;;;;;;;;;;19.03;66.50;100505.66;4672821;28;10000043;-55
2021/04/14 05:47:35;;;;;;;;;;;;;;;19.12;66.45;100508.47;5022775;28;1507;-55
2021/04/14 05:50:10;;;;;;;;;;;;;;;19.22;66.11;100509.31;5014466;22;3024;-48
2021/04/14 05:52:38;;;;;;;;;;;;;;;19.17;66.26;100523.13;5000480;28;1723;-48
2021/04/14 05:55:04;;;;;;;;;;;;;;;19.13;66.22;100536.97;5003784;28;1968;-47
2021/04/14 05:57:31;;;;;;;;;;;;;;;19.16;66.24;100545.59;5001481;28;1568;-47
2021/04/14 05:59:57;;;;;;;;;;;;;;;19.15;66.35;100551.06;5002122;28;1743;-47
2021/04/14 06:02:23;;;;;;;;;;;;;;;19.11;66.33;100544.31;4998387;28;1562;-49
2021/04/14 06:04:51;;;;;;;;;;;;;;;19.11;66.15;100547.00;5001044;28;1832;-48
2021/04/14 06:07:17;;;;;;;;;;;;;;;19.17;66.18;100565.19;5004934;28;1488;-47
2021/04/14 06:09:44;;;;;;;;;;;;;;;19.19;65.94;100565.88;5005081;28;1854;-48
2021/04/14 06:12:10;;;;;;;;;;;;;;;19.23;65.77;100564.63;5010106;28;1448;-47
2021/04/14 06:14:37;;;;;;;;;;;;;;;19.00;61.93;100570.28;5009001;28;2877;-47
2021/04/14 06:17:03;;;;;;;;;;;;;;;19.08;66.18;100567.72;5006306;28;2740;-47
2021/04/14 06:19:29;;;;;;;;;;;;;;;19.14;66.25;100566.31;5007666;28;1418;-47
2021/04/14 06:21:55;;;;;;;;;;;;;;;19.19;66.05;100580.13;5008294;28;2820;-47
2021/04/14 06:24:21;;;;;;;;;;;;;;;19.19;65.73;100584.66;5010262;28;1539;-50
2021/04/14 06:26:50;;;;;;;;;;;;;;;19.13;66.05;100590.59;5008632;28;1672;-48
2021/04/14 06:29:16;;;;;;;;;;;;;;;18.95;63.91;100583.22;5009899;28;1586;-48
2021/04/14 06:31:43;;;;;;;;;;;;;;;18.93;63.23;100579.84;5010733;28;1437;-47
2021/04/14 06:34:14;;;;;;;;;;;;;;;18.88;61.67;100587.47;5003915;28;1536;-47
2021/04/14 06:36:40;;;;;;;;;;;;;;;18.84;61.26;100583.34;5004835;28;1977;-47
2021/04/14 06:39:08;;;;;;;;;;;;;;;18.86;65.13;100589.41;5005719;28;1675;-47
2021/04/14 06:42:01;;;;;;;;;;;;;;;18.98;64.55;100569.56;5002046;28;1812;-47
2021/04/14 06:44:35;;;;;;;;;;;;;;;18.87;64.59;100581.25;5008879;28;1599;-47
2021/04/14 06:47:02;;;;;;;;;;;;;;;19.02;63.88;100597.78;5008506;28;1249;-47
2021/04/14 06:49:32;;;;;;;;;;;;;;;19.10;63.49;100601.56;5000091;28;1493;-47
2021/04/14 06:52:02;;;;;;;;;;;;;;;19.14;63.81;100602.97;5009103;28;1883;-47
2021/04/14 06:54:34;;;;;;;;;;;;;;;19.04;64.03;100619.09;5008340;28;1851;-47
2021/04/14 06:57:02;;;;;;;;;;;;;;;18.95;60.24;100625.25;5012642;28;1906;-47
2021/04/14 06:59:30;;;;;;;;;;;;;;;18.89;60.25;100632.00;5005398;28;1898;-49
2021/04/14 07:01:58;;;;;;;;;;;;;;;18.85;59.70;100635.97;5005958;28;1499;-47
2021/04/14 07:04:27;;;;;;;;;;;;;;;18.87;59.05;100652.75;5002078;28;1807;-47
2021/04/14 07:06:53;;;;;;;;;;;;;;;18.80;60.10;100655.13;5002930;28;1714;-47
2021/04/14 07:09:23;;;;;;;;;;;;;;;18.71;59.31;100653.22;5006670;28;1577;-47
2021/04/14 07:11:49;;;;;;;;;;;;;;;18.63;58.88;100656.59;5003106;28;1915;-47
2021/04/14 07:14:16;;;;;;;;;;;;;;;18.58;58.53;100672.22;5005970;28;1907;-47
2021/04/14 07:16:58;;;;;;;;;;;;;;;18.64;60.81;100658.28;5008420;28;1902;-48
2021/04/14 07:19:32;;;;;;;;;;;;;;;18.61;58.74;100666.59;5004157;28;1588;-47
2021/04/14 07:22:02;;;;;;;;;;;;;;;18.62;58.99;100660.25;5006017;28;1545;-47
2021/04/14 07:24:31;;;;;;;;;;;;;;;18.76;58.60;100671.56;5005248;28;1842;-48
2021/04/14 07:26:59;;;;;;;;;;;;;;;18.85;59.53;100678.81;5005887;28;1495;-47
2021/04/14 07:29:30;;;;;;;;;;;;;;;18.90;59.95;100673.91;5003223;28;1586;-48
2021/04/14 07:31:59;;;;;;;;;;;;;;;19.00;60.07;100682.81;5003307;28;1823;-48
2021/04/14 07:34:32;;;;;;;;;;;;;;;19.03;60.41;100677.16;5011960;28;1763;-47
2021/04/14 07:37:00;;;;;;;;;;;;;;;19.06;60.46;100684.13;5011329;28;1985;-48
2021/04/14 07:39:30;;;;;;;;;;;;;;;19.08;60.43;100693.69;5010179;28;1560;-47
2021/04/14 07:41:59;;;;;;;;;;;;;;;19.10;61.18;100704.28;5008447;28;1485;-48
2021/04/14 07:44:29;;;;;;;;;;;;;;;19.13;61.12;100705.84;5011603;28;1741;-48
2021/04/14 07:46:55;;;;;;;;;;;;;;;19.16;61.30;100713.59;5012348;28;1676;-47
2021/04/14 07:49:24;;;;;;;;;;;;;;;19.06;61.65;100700.19;5011846;28;1515;-47
2021/04/14 07:51:51;;;;;;;;;;;;;;;19.10;61.71;100708.78;5008308;28;1735;-48
2021/04/14 07:54:18;;;;;;;;;;;;;;;19.08;61.84;100712.47;5007733;28;1703;-47
2021/04/14 07:56:53;;;;;;;;;;;;;;;18.57;62.28;100724.09;5011719;28;1906;-48
2021/04/14 07:59:25;;;;;;;;;;;;;;;18.81;62.60;100721.13;5010318;28;1720;-48
2021/04/14 08:01:53;;;;;;;;;;;;;;;18.95;62.12;100725.25;5005832;28;1490;-48
2021/04/14 08:04:20;;;;;;;;;;;;;;;19.00;62.56;100728.38;4998833;28;1673;-47
2021/04/14 08:06:46;;;;;;;;;;;;;;;19.04;61.89;100737.00;5010491;28;1671;-47
2021/04/14 08:09:14;;;;;;;;;;;;;;;19.04;62.35;100720.91;5004243;28;1764;-47
2021/04/14 08:11:40;;;;;;;;;;;;;;;19.03;62.52;100736.13;5012063;28;1581;-47
2021/04/14 08:14:09;;;;;;;;;;;;;;;19.01;62.08;100742.63;5010580;28;1620;-47
2021/04/14 08:16:36;;;;;;;;;;;;;;;18.94;63.01;100747.69;5002993;28;1969;-46
2021/04/14 08:19:05;;;;;;;;;;;;;;;18.94;62.71;100745.00;5003264;28;1434;-47
2021/04/14 08:21:33;;;;;;;;;;;;;;;18.94;62.97;100750.38;5000041;28;1302;-48
2021/04/14 08:23:59;;;;;;;;;;;;;;;18.95;62.94;100754.72;4999376;28;1482;-48
2021/04/14 08:26:27;;;;;;;;;;;;;;;18.92;63.54;100738.94;5004043;28;1080;-48
2021/04/14 08:28:55;;;;;;;;;;;;;;;18.94;63.05;100745.00;5008184;28;1383;-47
2021/04/14 08:31:34;;;;;;;;;;;;;;;18.96;63.31;100750.22;5008593;28;1741;-47
2021/04/14 08:34:07;;;;;;;;;;;;;;;18.97;63.26;100755.44;4992758;28;1947;-47
2021/04/14 08:36:36;;;;;;;;;;;;;;;18.97;62.76;100746.56;5004230;28;2037;-47
2021/04/14 08:39:09;;;;;;;;;;;;;;;18.97;62.85;100754.59;4996794;28;1455;-47
2021/04/14 08:41:36;;;;;;;;;;;;;;;18.96;62.92;100771.66;5001001;28;1119;-48
2021/04/14 08:44:07;;;;;;;;;;;;;;;18.93;62.79;100764.72;5004632;28;1081;-47
2021/04/14 08:46:37;;;;;;;;;;;;;;;18.88;62.33;100759.78;5003852;28;1760;-49
2021/04/14 08:49:04;;;;;;;;;;;;;;;18.92;62.81;100765.72;5007345;28;1965;-47
2021/04/14 08:51:40;;;;;;;;;;;;;;;18.94;62.59;100769.13;5002138;28;1519;-47
2021/04/14 08:54:06;;;;;;;;;;;;;;;18.95;62.53;100754.72;5006705;28;1615;-47
2021/04/14 08:56:32;;;;;;;;;;;;;;;18.94;62.90;100761.09;5005420;28;1910;-48
2021/04/14 08:58:59;;;;;;;;;;;;;;;18.92;62.80;100749.66;5011039;28;1970;-47
2021/04/14 09:01:29;;;;;;;;;;;;;;;18.96;62.61;100755.56;5010775;28;1874;-47
2021/04/14 09:03:56;;;;;;;;;;;;;;;18.96;62.60;100760.94;5010834;28;1548;-46
2021/04/14 09:06:22;;;;;;;;;;;;;;;18.96;62.73;100761.81;5012098;28;1011;-44
2021/04/14 09:08:52;;;;;;;;;;;;;;;18.94;62.87;100761.09;5011077;28;1567;-46
2021/04/14 09:11:22;;;;;;;;;;;;;;;18.92;63.04;100770.22;5007640;28;1780;-44
2021/04/14 09:13:52;;;;;;;;;;;;;;;18.91;62.67;100761.34;5011561;28;1744;-44
2021/04/14 09:16:28;;;;;;;;;;;;;;;18.97;62.54;100763.47;5008358;28;1971;-44
2021/04/14 09:19:04;;;;;;;;;;;;;;;18.97;62.70;100771.53;5006785;28;1832;-45
2021/04/14 09:21:40;;;;;;;;;;;;;;;18.94;62.91;100757.53;5006747;28;1847;-45
2021/04/14 09:24:18;;;;;;;;;;;;;;;18.95;62.55;100762.75;5010559;28;1886;-47
2021/04/14 09:26:52;;;;;;;;;;;;;;;18.95;62.78;100756.56;5005208;28;1517;-45
2021/04/14 09:29:21;;;;;;;;;;;;;;;18.97;63.02;100760.81;5004123;28;1815;-45
2021/04/14 09:31:51;;;;;;;;;;;;;;;18.97;62.76;100750.06;5006670;28;1431;-47
2021/04/14 09:34:18;;;;;;;;;;;;;;;18.98;62.51;100757.16;5001036;28;1544;-47
2021/04/14 09:36:49;;;;;;;;;;;;;;;18.96;62.63;100753.75;5006356;28;1981;-47
2021/04/14 09:39:28;;;;;;;;;;;;;;;18.95;62.76;100743.16;5007217;28;1906;-46
2021/04/14 09:41:54;;;;;;;;;;;;;;;18.92;62.67;100744.28;5009924;28;1418;-48
2021/04/14 09:44:38;;;;;;;;;;;;;;;18.93;62.76;100743.28;5009337;28;1522;-48
2021/04/14 09:47:13;;;;;;;;;;;;;;;18.94;62.87;100736.97;5011389;28;1760;-47
2021/04/14 09:49:40;;;;;;;;;;;;;;;18.97;62.84;100752.75;5005662;28;1534;-48
2021/04/14 09:52:20;;;;;;;;;;;;;;;18.97;62.90;100742.03;5002037;28;1721;-47
2021/04/14 09:54:47;;;;;;;;;;;;;;;18.97;62.67;100742.03;5003461;28;2869;-47
2021/04/14 09:57:16;;;;;;;;;;;;;;;18.95;62.71;100732.44;5002094;28;1906;-47
2021/04/14 09:59:44;;;;;;;;;;;;;;;18.96;62.58;100737.69;5009476;28;1441;-47
2021/04/14 10:02:14;;;;;;;;;;;;;;;18.99;62.80;100755.31;5008892;28;1641;-46
2021/04/14 10:04:40;;;;;;;;;;;;;;;18.95;62.86;100753.88;5004252;28;1776;-47
2021/04/14 10:07:10;;;;;;;;;;;;;;;18.98;62.90;100754.47;5006678;28;1806;-46
2021/04/14 10:09:37;;;;;;;;;;;;;;;18.95;62.76;100753.88;5007527;28;1620;-47
2021/04/14 10:12:10;;;;;;;;;;;;;;;18.95;62.80;100744.00;5009724;28;1631;-46
2021/04/14 10:14:44;;;;;;;;;;;;;;;18.95;62.76;100753.88;5002170;28;1943;-47
2021/04/14 10:17:10;;;;;;;;;;;;;;;18.94;62.83;100742.31;5006399;28;1941;-47
2021/04/14 10:19:37;;;;;;;;;;;;;;;18.99;62.70;100739.22;5009167;28;1884;-47
2021/04/14 10:22:12;;;;;;;;;;;;;;;18.97;62.70;100735.84;5006645;28;1574;-47
2021/04/14 10:24:38;;;;;;;;;;;;;;;18.97;62.58;100742.03;5008055;28;1629;-47
2021/04/14 10:27:04;;;;;;;;;;;;;;;18.98;62.64;100738.38;5009800;28;1720;-47
2021/04/14 10:29:34;;;;;;;;;;;;;;;18.98;62.59;100742.88;5003293;28;1329;-46
2021/04/14 10:32:00;;;;;;;;;;;;;;;18.96;62.52;100737.69;5008090;28;1762;-47
2021/04/14 10:34:28;;;;;;;;;;;;;;;19.00;62.59;100746.28;5005890;28;1696;-47
2021/04/14 10:36:56;;;;;;;;;;;;;;;18.99;62.36;100734.72;5002161;28;1973;-47
2021/04/14 10:39:27;;;;;;;;;;;;;;;19.01;62.46;100743.47;5002010;28;1608;-47
2021/04/14 10:41:54;;;;;;;;;;;;;;;19.02;62.51;100744.31;5004536;28;1503;-47
2021/04/14 10:44:22;;;;;;;;;;;;;;;18.99;62.45;100726.66;5002536;28;1952;-47
2021/04/14 10:46:49;;;;;;;;;;;;;;;19.00;62.38;100736.41;5001508;28;1472;-47
2021/04/14 10:49:24;;;;;;;;;;;;;;;19.01;62.69;100743.47;5003230;28;1626;-46
2021/04/14 10:51:52;;;;;;;;;;;;;;;19.01;62.55;100731.91;4998749;28;1453;-46
2021/04/14 10:54:20;;;;;;;;;;;;;;;19.01;62.67;100737.25;5002227;28;1495;-47
2021/04/14 10:56:56;;;;;;;;;;;;;;;18.98;62.80;100749.13;5004055;28;1906;-47
2021/04/14 10:59:22;;;;;;;;;;;;;;;19.01;62.98;100748.81;5003517;28;1576;-47
2021/04/14 11:01:48;;;;;;;;;;;;;;;19.05;62.40;100742.19;5000007;28;1399;-46
2021/04/14 11:04:23;;;;;;;;;;;;;;;19.08;62.33;100749.16;5000225;28;1653;-46
2021/04/14 11:06:51;;;;;;;;;;;;;;;19.11;62.28;100745.34;5005907;28;1623;-47
2021/04/14 11:09:20;;;;;;;;;;;;;;;19.10;62.23;100732.91;5002683;28;11122;-47
2021/04/14 11:11:46;;;;;;;;;;;;;;;19.10;62.11;100724.88;5008632;28;1584;-47
2021/04/14 11:14:14;;;;;;;;;;;;;;;19.12;62.18;100739.84;5009123;28;1784;-48
2021/04/14 11:16:41;;;;;;;;;;;;;;;19.11;62.10;100738.13;5003107;28;1927;-47
2021/04/14 11:19:11;;;;;;;;;;;;;;;19.09;61.85;100724.03;5006971;28;1721;-48
2021/04/14 11:21:37;;;;;;;;;;;;;;;19.08;61.73;100728.53;4999649;28;1404;-47
2021/04/14 11:24:07;;;;;;;;;;;;;;;19.12;61.62;100736.28;4997527;28;1682;-47
2021/04/14 11:26:38;;;;;;;;;;;;;;;19.08;61.93;100716.97;5002909;28;1685;-46
2021/04/14 11:29:04;;;;;;;;;;;;;;;19.10;61.91;100720.38;5005522;28;1857;-46
2021/04/14 11:31:37;;;;;;;;;;;;;;;19.12;61.85;100720.22;5000255;28;1635;-47
2021/04/14 11:34:20;;;;;;;;;;;;;;;19.14;61.73;100716.44;5005703;28;1297;-46
2021/04/14 11:37:01;;;;;;;;;;;;;;;19.22;61.34;100731.81;5007037;28;1979;-47
2021/04/14 11:39:28;;;;;;;;;;;;;;;19.20;61.19;100718.56;5006571;28;1494;-46
2021/04/14 11:42:12;;;;;;;;;;;;;;;19.20;61.98;100717.69;5008598;28;1785;-47
2021/04/14 11:44:51;;;;;;;;;;;;;;;19.22;61.65;100713.06;5006954;28;1470;-46
2021/04/14 11:47:26;;;;;;;;;;;;;;;19.23;61.79;100712.06;5011018;28;1370;-47
2021/04/14 11:49:56;;;;;;;;;;;;;;;19.27;61.77;100710.78;5008995;28;1390;-46
2021/04/14 11:52:24;;;;;;;;;;;;;;;19.27;61.87;100705.44;5005857;28;1606;-47
2021/04/14 11:54:51;;;;;;;;;;;;;;;19.29;61.74;100695.41;5008483;28;1836;-47
2021/04/14 11:57:21;;;;;;;;;;;;;;;19.26;61.77;100706.44;5007682;28;1910;-48
2021/04/14 11:59:48;;;;;;;;;;;;;;;19.28;61.55;100694.56;5001198;28;1755;-46
2021/04/14 12:02:20;;;;;;;;;;;;;;;19.25;61.66;100691.31;5008999;28;1245;-46
2021/04/14 12:04:55;;;;;;;;;;;;;;;19.27;60.61;100689.34;5011227;28;1888;-46
2021/04/14 12:07:21;;;;;;;;;;;;;;;19.31;61.60;100695.28;5009733;28;1547;-47
2021/04/14 12:09:47;;;;;;;;;;;;;;;19.27;61.68;100694.72;5010953;28;1470;-46
2021/04/14 12:12:13;;;;;;;;;;;;;;;19.25;61.50;100696.69;5011141;28;1425;-46
2021/04/14 12:17:21;;;;;;;;;;;;;;;19.19;60.61;100691.88;5010577;28;2394;-46
2021/04/14 12:19:47;;;;;;;;;;;;;;;19.19;60.91;100687.34;5010517;28;1791;-47
2021/04/14 12:22:13;;;;;;;;;;;;;;;19.18;61.23;100700.88;5009023;28;1614;-47
2021/04/14 12:24:41;;;;;;;;;;;;;;;19.22;61.36;100691.63;5009614;28;1430;-47
2021/04/14 12:27:07;;;;;;;;;;;;;;;19.14;61.23;100688.75;5006870;28;1457;-47
2021/04/14 12:29:33;;;;;;;;;;;;;;;19.09;61.29;100678.47;5009763;28;1353;-48
2021/04/14 12:32:00;;;;;;;;;;;;;;;19.04;61.53;100683.41;5002643;28;1261;-47
2021/04/14 12:34:26;;;;;;;;;;;;;;;19.03;61.31;100681.69;5009199;28;2164;-46
2021/04/14 12:36:58;;;;;;;;;;;;;;;19.05;61.22;100674.34;5012777;28;1914;-47
2021/04/14 12:39:24;;;;;;;;;;;;;;;19.02;61.72;100675.50;5011154;28;1645;-46
2021/04/14 12:41:51;;;;;;;;;;;;;;;19.05;61.69;100680.56;5013258;28;1932;-47
2021/04/14 12:44:19;;;;;;;;;;;;;;;19.02;60.90;100680.84;5011133;28;1619;-47
2021/04/14 12:46:47;;;;;;;;;;;;;;;19.01;61.95;100670.25;5014423;28;1131;-46
2021/04/14 12:49:22;;;;;;;;;;;;;;;19.01;62.15;100660.38;5012019;28;1464;-47
2021/04/14 12:51:49;;;;;;;;;;;;;;;19.01;62.02;100668.41;5012122;28;1559;-47